createdAt,value
2019-02-17T00:00:17.943Z,22.35
2019-02-17T00:01:17.895Z,22.31
2019-02-17T00:02:17.853Z,22.35
2019-02-17T00:03:17.810Z,22.38
2019-02-17T00:04:17.765Z,22.32
2019-02-17T00:05:17.718Z,22.31
2019-02-17T00:06:17.674Z,22.37
2019-02-17T00:07:17.628Z,22.34
2019-02-17T00:08:17.585Z,22.32
2019-02-17T00:09:17.537Z,22.32
2019-02-17T00:10:17.508Z,22.32
2019-02-17T00:11:17.448Z,22.32
2019-02-17T00:12:17.406Z,22.35
2019-02-17T00:13:17.360Z,22.32
2019-02-17T00:14:17.316Z,22.35
2019-02-17T00:15:17.276Z,22.31
2019-02-17T00:16:17.228Z,22.38
2019-02-17T00:17:17.179Z,22.35
2019-02-17T00:18:17.140Z,22.34
2019-02-17T00:19:17.093Z,22.35
2019-02-17T00:20:17.049Z,22.50
2019-02-17T00:21:17.021Z,22.44
2019-02-17T00:22:16.971Z,22.44
2019-02-17T00:23:16.914Z,22.47
2019-02-17T00:24:16.873Z,22.46
2019-02-17T00:25:16.825Z,22.43
2019-02-17T00:26:16.784Z,22.43
2019-02-17T00:27:16.736Z,22.43
2019-02-17T00:28:16.696Z,22.44
2019-02-17T00:29:16.646Z,22.38
2019-02-17T00:30:16.615Z,22.49
2019-02-17T00:31:16.558Z,22.41
2019-02-17T00:32:16.518Z,22.52
2019-02-17T00:33:16.468Z,22.44
2019-02-17T00:34:16.427Z,22.53
2019-02-17T00:35:16.397Z,22.54
2019-02-17T00:36:16.349Z,22.41
2019-02-17T00:37:16.291Z,22.49
2019-02-17T00:38:16.268Z,22.52
2019-02-17T00:39:16.195Z,22.57
2019-02-17T00:40:16.156Z,22.53
2019-02-17T00:41:16.136Z,22.50
2019-02-17T00:42:16.064Z,22.52
2019-02-17T00:43:16.030Z,22.50
2019-02-17T00:44:15.978Z,22.53
2019-02-17T00:45:15.936Z,22.52
2019-02-17T00:46:15.901Z,22.49
2019-02-17T00:47:15.843Z,22.52
2019-02-17T00:48:15.801Z,22.56
2019-02-17T00:49:15.767Z,22.52
2019-02-17T00:50:15.719Z,22.50
2019-02-17T00:51:15.677Z,22.52
2019-02-17T00:52:15.618Z,22.50
2019-02-17T00:53:15.587Z,22.52
2019-02-17T00:54:15.565Z,22.53
2019-02-17T00:55:15.490Z,22.52
2019-02-17T00:56:15.448Z,22.50
2019-02-17T00:57:15.414Z,22.50
2019-02-17T00:58:15.377Z,22.53
2019-02-17T00:59:15.324Z,22.52
2019-02-17T01:00:15.270Z,22.54
2019-02-17T01:01:15.220Z,22.52
2019-02-17T01:02:15.172Z,22.50
2019-02-17T01:03:15.146Z,22.53
2019-02-17T01:04:15.096Z,22.54
2019-02-17T01:05:15.044Z,22.53
2019-02-17T01:06:15.002Z,22.53
2019-02-17T01:07:14.956Z,22.53
2019-02-17T01:08:14.905Z,22.52
2019-02-17T01:09:14.868Z,22.49
2019-02-17T01:10:14.814Z,22.50
2019-02-17T01:11:14.778Z,22.54
2019-02-17T01:12:14.742Z,22.52
2019-02-17T01:13:14.687Z,22.47
2019-02-17T01:14:14.644Z,22.52
2019-02-17T01:15:14.599Z,22.52
2019-02-17T01:16:14.556Z,22.47
2019-02-17T01:17:14.526Z,22.54
2019-02-17T01:18:14.467Z,22.52
2019-02-17T01:19:14.421Z,22.52
2019-02-17T01:20:14.376Z,22.52
2019-02-17T01:21:14.332Z,22.52
2019-02-17T01:22:14.287Z,22.53
2019-02-17T01:23:14.242Z,22.54
2019-02-17T01:24:14.203Z,22.57
2019-02-17T01:25:14.154Z,22.54
2019-02-17T01:26:14.106Z,22.52
2019-02-17T01:27:14.065Z,22.52
2019-02-17T01:28:14.019Z,22.52
2019-02-17T01:29:20.381Z,22.54
2019-02-17T01:30:13.928Z,22.59
2019-02-17T01:31:13.885Z,22.56
2019-02-17T01:32:13.843Z,22.60
2019-02-17T01:33:13.798Z,22.56
2019-02-17T01:34:13.748Z,22.60
2019-02-17T01:35:13.726Z,22.62
2019-02-17T01:36:13.664Z,22.50
2019-02-17T01:37:13.671Z,22.56
2019-02-17T01:38:13.572Z,22.62
2019-02-17T01:39:13.531Z,22.62
2019-02-17T01:40:13.484Z,22.59
2019-02-17T01:41:13.440Z,22.56
2019-02-17T01:42:13.395Z,22.62
2019-02-17T01:43:13.353Z,22.53
2019-02-17T01:44:13.307Z,22.57
2019-02-17T01:45:13.264Z,22.54
2019-02-17T01:46:13.217Z,22.64
2019-02-17T01:47:13.180Z,22.62
2019-02-17T01:48:13.132Z,22.65
2019-02-17T01:49:13.086Z,22.54
2019-02-17T01:50:13.039Z,22.68
2019-02-17T01:51:12.993Z,22.52
2019-02-17T01:52:12.952Z,22.56
2019-02-17T01:53:12.906Z,22.56
2019-02-17T01:54:12.862Z,22.59
2019-02-17T01:55:12.812Z,22.52
2019-02-17T01:56:12.768Z,22.54
2019-02-17T01:57:12.726Z,22.56
2019-02-17T01:58:12.703Z,22.53
2019-02-17T01:59:12.644Z,22.56
2019-02-17T02:00:12.598Z,22.59
2019-02-17T02:01:12.548Z,22.50
2019-02-17T02:02:12.515Z,22.56
2019-02-17T02:03:12.453Z,22.53
2019-02-17T02:04:12.421Z,22.54
2019-02-17T02:05:12.370Z,22.56
2019-02-17T02:06:12.329Z,22.57
2019-02-17T02:07:12.281Z,22.62
2019-02-17T02:08:12.236Z,22.64
2019-02-17T02:09:12.191Z,22.64
2019-02-17T02:10:12.149Z,22.59
2019-02-17T02:11:12.105Z,22.67
2019-02-17T02:12:12.068Z,22.60
2019-02-17T02:13:12.011Z,22.59
2019-02-17T02:14:11.976Z,22.62
2019-02-17T02:15:11.925Z,22.65
2019-02-17T02:16:11.881Z,22.65
2019-02-17T02:17:11.835Z,22.60
2019-02-17T02:18:11.794Z,22.65
2019-02-17T02:19:11.747Z,22.64
2019-02-17T02:20:11.702Z,22.57
2019-02-17T02:21:11.660Z,22.65
2019-02-17T02:22:11.641Z,22.62
2019-02-17T02:23:11.571Z,22.60
2019-02-17T02:24:11.531Z,22.62
2019-02-17T02:25:11.482Z,22.60
2019-02-17T02:26:11.438Z,22.67
2019-02-17T02:27:11.390Z,22.52
2019-02-17T02:28:11.352Z,22.59
2019-02-17T02:29:11.300Z,22.62
2019-02-17T02:30:11.264Z,22.65
2019-02-17T02:31:11.207Z,22.64
2019-02-17T02:32:11.165Z,22.54
2019-02-17T02:33:11.120Z,22.57
2019-02-17T02:34:11.079Z,22.62
2019-02-17T02:35:11.038Z,22.59
2019-02-17T02:36:10.991Z,22.65
2019-02-17T02:37:10.943Z,22.56
2019-02-17T02:38:10.900Z,22.67
2019-02-17T02:39:10.860Z,22.62
2019-02-17T02:40:10.815Z,22.53
2019-02-17T02:41:10.764Z,22.59
2019-02-17T02:42:10.722Z,22.57
2019-02-17T02:43:10.676Z,22.56
2019-02-17T02:44:10.631Z,22.60
2019-02-17T02:45:10.580Z,22.57
2019-02-17T02:46:10.546Z,22.62
2019-02-17T02:47:10.500Z,22.53
2019-02-17T02:48:10.457Z,22.50
2019-02-17T02:49:10.412Z,22.65
2019-02-17T02:50:10.369Z,22.54
2019-02-17T02:51:10.325Z,22.64
2019-02-17T02:52:10.288Z,22.62
2019-02-17T02:53:10.234Z,22.53
2019-02-17T02:54:10.192Z,22.52
2019-02-17T02:55:10.145Z,22.56
2019-02-17T02:56:10.099Z,22.54
2019-02-17T02:57:10.134Z,22.53
2019-02-17T02:58:10.011Z,22.50
2019-02-17T02:59:09.969Z,22.52
2019-02-17T03:00:09.927Z,22.56
2019-02-17T03:01:09.878Z,22.56
2019-02-17T03:02:09.832Z,22.54
2019-02-17T03:03:09.783Z,22.52
2019-02-17T03:04:09.741Z,22.52
2019-02-17T03:05:09.695Z,22.53
2019-02-17T03:06:09.653Z,22.53
2019-02-17T03:07:09.607Z,22.54
2019-02-17T03:08:09.563Z,22.53
2019-02-17T03:09:09.517Z,22.62
2019-02-17T03:10:09.480Z,22.50
2019-02-17T03:11:09.430Z,22.53
2019-02-17T03:12:09.388Z,22.53
2019-02-17T03:13:09.340Z,22.53
2019-02-17T03:14:09.307Z,22.53
2019-02-17T03:15:09.254Z,22.59
2019-02-17T03:16:09.216Z,22.52
2019-02-17T03:17:09.161Z,22.52
2019-02-17T03:18:09.117Z,22.62
2019-02-17T03:19:09.073Z,22.60
2019-02-17T03:20:09.027Z,22.52
2019-02-17T03:21:08.984Z,22.53
2019-02-17T03:22:08.941Z,22.53
2019-02-17T03:23:08.891Z,22.56
2019-02-17T03:24:08.850Z,22.59
2019-02-17T03:25:08.810Z,22.53
2019-02-17T03:26:08.763Z,22.54
2019-02-17T03:27:08.723Z,22.53
2019-02-17T03:28:08.672Z,22.54
2019-02-17T03:29:08.626Z,22.52
2019-02-17T03:30:08.583Z,22.57
2019-02-17T03:31:08.544Z,22.56
2019-02-17T03:32:08.496Z,22.57
2019-02-17T03:33:08.610Z,22.53
2019-02-17T03:34:08.411Z,22.54
2019-02-17T03:35:08.365Z,22.50
2019-02-17T03:36:08.328Z,22.54
2019-02-17T03:37:08.289Z,22.60
2019-02-17T03:38:08.227Z,22.57
2019-02-17T03:39:08.183Z,22.53
2019-02-17T03:40:08.140Z,22.47
2019-02-17T03:41:08.091Z,22.52
2019-02-17T03:42:08.056Z,22.56
2019-02-17T03:43:08.003Z,22.54
2019-02-17T03:44:07.962Z,22.53
2019-02-17T03:45:07.927Z,22.50
2019-02-17T03:46:07.870Z,22.53
2019-02-17T03:47:07.838Z,22.57
2019-02-17T03:48:07.849Z,22.52
2019-02-17T03:49:07.738Z,22.54
2019-02-17T03:50:07.699Z,22.49
2019-02-17T03:51:07.667Z,22.52
2019-02-17T03:52:07.606Z,22.50
2019-02-17T03:53:07.569Z,22.52
2019-02-17T03:54:07.513Z,22.49
2019-02-17T03:55:07.479Z,22.54
2019-02-17T03:56:07.425Z,22.54
2019-02-17T03:57:07.380Z,22.49
2019-02-17T03:58:07.387Z,22.52
2019-02-17T03:59:07.292Z,22.49
2019-02-17T04:00:16.515Z,22.54
2019-02-17T04:01:07.200Z,22.54
2019-02-17T04:02:07.155Z,22.52
2019-02-17T04:03:07.114Z,22.53
2019-02-17T04:04:07.075Z,22.46
2019-02-17T04:05:07.028Z,22.53
2019-02-17T04:06:06.979Z,22.54
2019-02-17T04:07:06.935Z,22.50
2019-02-17T04:08:06.901Z,22.50
2019-02-17T04:09:06.850Z,22.52
2019-02-17T04:10:06.804Z,22.52
2019-02-17T04:11:06.758Z,22.56
2019-02-17T04:12:06.724Z,22.53
2019-02-17T04:13:06.671Z,22.50
2019-02-17T04:14:06.624Z,22.54
2019-02-17T04:15:06.582Z,22.54
2019-02-17T04:16:06.534Z,22.52
2019-02-17T04:17:06.496Z,22.49
2019-02-17T04:18:06.446Z,22.52
2019-02-17T04:19:06.415Z,22.53
2019-02-17T04:20:06.362Z,22.54
2019-02-17T04:21:06.314Z,22.49
2019-02-17T04:22:06.268Z,22.47
2019-02-17T04:23:06.223Z,22.49
2019-02-17T04:24:06.176Z,22.53
2019-02-17T04:25:06.133Z,22.53
2019-02-17T04:26:06.086Z,22.53
2019-02-17T04:27:06.045Z,22.52
2019-02-17T04:28:05.997Z,22.53
2019-02-17T04:29:05.961Z,22.52
2019-02-17T04:30:05.920Z,22.52
2019-02-17T04:31:05.932Z,22.49
2019-02-17T04:32:05.820Z,22.52
2019-02-17T04:33:05.777Z,22.56
2019-02-17T04:34:05.733Z,22.50
2019-02-17T04:35:05.692Z,22.52
2019-02-17T04:36:05.648Z,22.50
2019-02-17T04:37:05.603Z,22.50
2019-02-17T04:38:05.554Z,22.50
2019-02-17T04:39:05.518Z,22.50
2019-02-17T04:40:05.467Z,22.50
2019-02-17T04:41:05.426Z,22.50
2019-02-17T04:42:05.385Z,22.53
2019-02-17T04:43:05.332Z,22.52
2019-02-17T04:44:05.286Z,22.52
2019-02-17T04:45:05.241Z,22.50
2019-02-17T04:46:05.198Z,22.50
2019-02-17T04:47:05.156Z,22.53
2019-02-17T04:48:05.113Z,22.50
2019-02-17T04:49:05.064Z,22.52
2019-02-17T04:50:05.080Z,22.49
2019-02-17T04:51:04.975Z,22.52
2019-02-17T04:52:04.936Z,22.52
2019-02-17T04:53:04.886Z,22.52
2019-02-17T04:54:04.856Z,22.57
2019-02-17T04:55:04.799Z,22.54
2019-02-17T04:56:04.757Z,22.52
2019-02-17T04:57:04.721Z,22.53
2019-02-17T04:58:04.660Z,22.43
2019-02-17T04:59:04.619Z,22.47
2019-02-17T05:00:04.576Z,22.50
2019-02-17T05:01:04.529Z,22.49
2019-02-17T05:02:04.486Z,22.57
2019-02-17T05:03:04.448Z,22.53
2019-02-17T05:04:04.396Z,22.50
2019-02-17T05:05:04.351Z,22.54
2019-02-17T05:06:04.314Z,22.49
2019-02-17T05:07:04.261Z,22.50
2019-02-17T05:08:04.218Z,22.53
2019-02-17T05:09:04.184Z,22.54
2019-02-17T05:10:04.128Z,22.47
2019-02-17T05:11:04.088Z,22.47
2019-02-17T05:12:04.039Z,22.53
2019-02-17T05:13:03.995Z,22.52
2019-02-17T05:14:03.952Z,22.52
2019-02-17T05:15:03.911Z,22.53
2019-02-17T05:16:03.890Z,22.54
2019-02-17T05:17:03.817Z,22.50
2019-02-17T05:18:03.768Z,22.54
2019-02-17T05:19:03.755Z,22.52
2019-02-17T05:20:03.680Z,22.52
2019-02-17T05:21:03.660Z,22.52
2019-02-17T05:22:03.595Z,22.50
2019-02-17T05:23:03.552Z,22.52
2019-02-17T05:24:03.504Z,22.50
2019-02-17T05:25:03.468Z,22.54
2019-02-17T05:26:03.415Z,22.52
2019-02-17T05:27:03.374Z,22.53
2019-02-17T05:28:03.329Z,22.52
2019-02-17T05:29:03.281Z,22.47
2019-02-17T05:30:03.241Z,22.54
2019-02-17T05:31:03.222Z,22.50
2019-02-17T05:32:03.148Z,22.56
2019-02-17T05:33:03.121Z,22.50
2019-02-17T05:34:03.057Z,22.54
2019-02-17T05:35:03.019Z,22.50
2019-02-17T05:36:02.970Z,22.50
2019-02-17T05:37:02.925Z,22.53
2019-02-17T05:38:02.883Z,22.50
2019-02-17T05:39:02.841Z,22.54
2019-02-17T05:40:02.792Z,22.52
2019-02-17T05:41:02.745Z,22.52
2019-02-17T05:42:02.702Z,22.52
2019-02-17T05:43:02.664Z,22.53
2019-02-17T05:44:02.615Z,22.44
2019-02-17T05:45:02.566Z,22.41
2019-02-17T05:46:02.522Z,22.53
2019-02-17T05:47:02.478Z,22.49
2019-02-17T05:48:02.438Z,22.50
2019-02-17T05:49:02.391Z,22.53
2019-02-17T05:50:02.347Z,22.46
2019-02-17T05:51:02.303Z,22.49
2019-02-17T05:52:02.258Z,22.53
2019-02-17T05:53:02.214Z,22.52
2019-02-17T05:54:02.170Z,22.44
2019-02-17T05:55:02.125Z,22.54
2019-02-17T05:56:02.105Z,22.50
2019-02-17T05:57:02.033Z,22.38
2019-02-17T05:58:01.995Z,22.38
2019-02-17T05:59:01.959Z,22.49
2019-02-17T06:00:01.904Z,22.41
2019-02-17T06:01:04.092Z,22.53
2019-02-17T06:02:01.824Z,22.43
2019-02-17T06:03:01.787Z,22.53
2019-02-17T06:04:01.728Z,22.43
2019-02-17T06:05:01.677Z,22.46
2019-02-17T06:06:01.662Z,22.46
2019-02-17T06:07:01.589Z,22.41
2019-02-17T06:08:01.548Z,22.46
2019-02-17T06:09:01.498Z,22.49
2019-02-17T06:10:01.457Z,22.44
2019-02-17T06:11:01.411Z,22.47
2019-02-17T06:12:01.375Z,22.41
2019-02-17T06:13:01.320Z,22.46
2019-02-17T06:14:01.277Z,22.49
2019-02-17T06:15:01.255Z,22.46
2019-02-17T06:16:01.187Z,22.46
2019-02-17T06:17:01.142Z,22.44
2019-02-17T06:18:01.099Z,22.43
2019-02-17T06:19:01.053Z,22.43
2019-02-17T06:20:01.009Z,22.39
2019-02-17T06:21:00.967Z,22.44
2019-02-17T06:22:00.920Z,22.53
2019-02-17T06:23:00.887Z,22.47
2019-02-17T06:24:00.832Z,22.47
2019-02-17T06:25:00.785Z,22.46
2019-02-17T06:26:00.747Z,22.38
2019-02-17T06:27:00.698Z,22.46
2019-02-17T06:28:00.652Z,22.41
2019-02-17T06:29:00.617Z,22.47
2019-02-17T06:30:00.576Z,22.41
2019-02-17T06:31:00.521Z,22.46
2019-02-17T06:32:00.474Z,22.49
2019-02-17T06:33:00.433Z,22.46
2019-02-17T06:34:00.388Z,22.43
2019-02-17T06:35:00.371Z,22.46
2019-02-17T06:36:00.298Z,22.43
2019-02-17T06:37:00.254Z,22.46
2019-02-17T06:38:00.208Z,22.44
2019-02-17T06:39:00.160Z,22.49
2019-02-17T06:40:00.391Z,22.41
2019-02-17T06:41:00.071Z,22.43
2019-02-17T06:42:00.031Z,22.43
2019-02-17T06:42:59.984Z,22.50
2019-02-17T06:43:59.939Z,22.44
2019-02-17T06:44:59.896Z,22.52
2019-02-17T06:45:59.857Z,22.50
2019-02-17T06:46:59.805Z,22.46
2019-02-17T06:47:59.761Z,22.44
2019-02-17T06:48:59.715Z,22.47
2019-02-17T06:49:59.662Z,22.44
2019-02-17T06:50:59.631Z,22.49
2019-02-17T06:51:59.582Z,22.41
2019-02-17T06:52:59.536Z,22.52
2019-02-17T06:53:59.493Z,22.47
2019-02-17T06:54:59.448Z,22.43
2019-02-17T06:55:59.410Z,22.46
2019-02-17T06:56:59.360Z,22.53
2019-02-17T06:57:59.322Z,22.56
2019-02-17T06:58:59.270Z,22.49
2019-02-17T06:59:59.224Z,22.43
2019-02-17T07:00:59.186Z,22.41
2019-02-17T07:01:59.176Z,22.53
2019-02-17T07:02:59.093Z,22.49
2019-02-17T07:03:59.042Z,22.49
2019-02-17T07:04:59.023Z,22.47
2019-02-17T07:05:59.009Z,22.50
2019-02-17T07:06:58.913Z,22.46
2019-02-17T07:07:58.875Z,22.41
2019-02-17T07:08:58.823Z,22.50
2019-02-17T07:09:58.779Z,22.52
2019-02-17T07:10:58.740Z,22.47
2019-02-17T07:11:58.691Z,22.53
2019-02-17T07:12:58.645Z,22.53
2019-02-17T07:13:58.602Z,22.47
2019-02-17T07:14:58.556Z,22.52
2019-02-17T07:15:58.510Z,22.52
2019-02-17T07:16:58.478Z,22.49
2019-02-17T07:17:59.211Z,22.50
2019-02-17T07:18:58.380Z,22.57
2019-02-17T07:19:58.335Z,22.50
2019-02-17T07:20:58.309Z,22.52
2019-02-17T07:21:58.249Z,22.60
2019-02-17T07:22:58.201Z,22.60
2019-02-17T07:23:58.161Z,22.64
2019-02-17T07:24:58.110Z,22.69
2019-02-17T07:25:58.068Z,22.62
2019-02-17T07:26:58.040Z,22.67
2019-02-17T07:27:58.008Z,22.72
2019-02-17T07:28:57.947Z,22.72
2019-02-17T07:29:57.953Z,22.75
2019-02-17T07:30:57.914Z,22.72
2019-02-17T07:31:57.845Z,22.72
2019-02-17T07:32:57.808Z,22.78
2019-02-17T07:33:57.756Z,22.82
2019-02-17T07:34:57.735Z,22.84
2019-02-17T07:35:57.655Z,22.87
2019-02-17T07:36:57.655Z,22.84
2019-02-17T07:37:57.584Z,22.93
2019-02-17T07:38:57.488Z,22.87
2019-02-17T07:39:57.458Z,22.82
2019-02-17T07:40:57.454Z,22.87
2019-02-17T07:41:57.364Z,22.93
2019-02-17T07:42:57.362Z,22.92
2019-02-17T07:43:57.266Z,22.87
2019-02-17T07:44:57.229Z,22.92
2019-02-17T07:45:57.189Z,22.97
2019-02-17T07:46:57.218Z,23.01
2019-02-17T07:47:57.092Z,22.94
2019-02-17T07:48:57.040Z,22.97
2019-02-17T07:49:57.014Z,22.90
2019-02-17T07:50:56.953Z,22.96
2019-02-17T07:51:56.979Z,22.93
2019-02-17T07:52:56.867Z,22.99
2019-02-17T07:53:56.823Z,23.04
2019-02-17T07:54:56.833Z,22.97
2019-02-17T07:55:56.732Z,23.11
2019-02-17T07:56:56.684Z,23.08
2019-02-17T07:57:56.633Z,23.09
2019-02-17T07:58:56.601Z,23.11
2019-02-17T07:59:56.637Z,23.12
2019-02-17T08:00:56.507Z,23.07
2019-02-17T08:01:56.467Z,23.05
2019-02-17T08:02:56.431Z,23.08
2019-02-17T08:03:56.401Z,23.22
2019-02-17T08:04:56.329Z,23.08
2019-02-17T08:05:56.392Z,23.19
2019-02-17T08:06:56.276Z,23.17
2019-02-17T08:07:56.207Z,23.23
2019-02-17T08:08:56.152Z,23.07
2019-02-17T08:09:56.108Z,23.19
2019-02-17T08:11:03.767Z,23.07
2019-02-17T08:11:56.050Z,23.17
2019-02-17T08:12:55.974Z,23.12
2019-02-17T08:13:55.931Z,23.20
2019-02-17T08:14:55.935Z,23.20
2019-02-17T08:15:55.861Z,23.15
2019-02-17T08:16:55.796Z,23.17
2019-02-17T08:17:55.753Z,23.12
2019-02-17T08:18:55.757Z,23.15
2019-02-17T08:19:55.693Z,23.22
2019-02-17T08:20:55.631Z,23.20
2019-02-17T08:21:55.575Z,23.22
2019-02-17T08:22:55.531Z,23.24
2019-02-17T08:23:55.490Z,23.27
2019-02-17T08:24:55.462Z,23.24
2019-02-17T08:25:55.397Z,23.26
2019-02-17T08:26:55.353Z,23.26
2019-02-17T08:27:55.310Z,23.23
2019-02-17T08:28:55.264Z,23.20
2019-02-17T08:29:55.235Z,23.20
2019-02-17T08:30:55.223Z,23.27
2019-02-17T08:31:56.266Z,23.22
2019-02-17T08:32:55.081Z,23.20
2019-02-17T08:33:55.120Z,23.26
2019-02-17T08:34:55.029Z,23.20
2019-02-17T08:35:54.987Z,23.26
2019-02-17T08:36:54.910Z,23.23
2019-02-17T08:37:54.869Z,23.14
2019-02-17T08:38:54.819Z,23.22
2019-02-17T08:39:54.778Z,23.15
2019-02-17T08:40:54.774Z,23.17
2019-02-17T08:41:54.780Z,23.23
2019-02-17T08:42:54.726Z,23.22
2019-02-17T08:43:54.669Z,23.23
2019-02-17T08:44:54.555Z,23.12
2019-02-17T08:45:54.514Z,23.08
2019-02-17T08:46:54.464Z,23.17
2019-02-17T08:47:54.424Z,23.05
2019-02-17T08:48:54.375Z,23.09
2019-02-17T08:49:54.406Z,23.20
2019-02-17T08:50:54.289Z,23.05
2019-02-17T08:51:54.247Z,23.14
2019-02-17T08:52:54.203Z,23.08
2019-02-17T08:53:54.211Z,23.22
2019-02-17T08:54:54.144Z,23.22
2019-02-17T08:55:54.127Z,23.23
2019-02-17T08:56:54.022Z,23.22
2019-02-17T08:57:53.986Z,23.09
2019-02-17T08:58:53.936Z,23.14
2019-02-17T08:59:53.899Z,23.14
2019-02-17T09:00:53.840Z,23.19
2019-02-17T09:01:53.808Z,23.15
2019-02-17T09:02:53.798Z,23.26
2019-02-17T09:03:53.715Z,23.29
2019-02-17T09:04:53.669Z,23.22
2019-02-17T09:05:53.629Z,23.31
2019-02-17T09:06:53.584Z,23.27
2019-02-17T09:07:53.540Z,23.23
2019-02-17T09:08:53.501Z,23.22
2019-02-17T09:09:53.452Z,23.19
2019-02-17T09:10:53.421Z,23.17
2019-02-17T09:11:53.365Z,23.19
2019-02-17T09:12:53.337Z,23.19
2019-02-17T09:13:53.287Z,23.17
2019-02-17T09:14:53.234Z,23.22
2019-02-17T09:15:53.185Z,23.17
2019-02-17T09:16:53.138Z,23.15
2019-02-17T09:17:53.093Z,23.12
2019-02-17T09:18:53.047Z,23.20
2019-02-17T09:19:53.006Z,23.14
2019-02-17T09:20:52.992Z,23.15
2019-02-17T09:21:52.916Z,23.19
2019-02-17T09:22:52.874Z,23.15
2019-02-17T09:23:52.826Z,23.17
2019-02-17T09:24:52.783Z,23.19
2019-02-17T09:25:52.738Z,23.12
2019-02-17T09:26:52.693Z,23.14
2019-02-17T09:27:52.652Z,23.17
2019-02-17T09:28:52.607Z,23.20
2019-02-17T09:29:52.568Z,23.20
2019-02-17T09:30:52.517Z,23.14
2019-02-17T09:31:52.476Z,23.17
2019-02-17T09:32:52.425Z,23.20
2019-02-17T09:33:52.387Z,23.12
2019-02-17T09:34:52.340Z,23.20
2019-02-17T09:35:52.306Z,23.14
2019-02-17T09:36:52.249Z,23.15
2019-02-17T09:37:52.209Z,23.12
2019-02-17T09:38:52.162Z,23.12
2019-02-17T09:39:52.120Z,23.20
2019-02-17T09:40:52.075Z,23.22
2019-02-17T09:41:52.031Z,23.17
2019-02-17T09:42:51.999Z,23.15
2019-02-17T09:43:51.943Z,23.15
2019-02-17T09:44:51.911Z,23.23
2019-02-17T09:45:51.852Z,23.20
2019-02-17T09:46:51.809Z,23.26
2019-02-17T09:47:51.763Z,23.26
2019-02-17T09:48:51.723Z,23.23
2019-02-17T09:49:51.675Z,23.26
2019-02-17T09:50:51.631Z,23.22
2019-02-17T09:51:51.593Z,23.27
2019-02-17T09:52:51.545Z,23.22
2019-02-17T09:53:51.583Z,23.27
2019-02-17T09:54:51.460Z,23.23
2019-02-17T09:55:51.412Z,23.23
2019-02-17T09:56:51.365Z,23.24
2019-02-17T09:57:51.322Z,23.35
2019-02-17T09:58:51.293Z,23.29
2019-02-17T09:59:51.234Z,23.32
2019-02-17T10:00:51.190Z,23.34
2019-02-17T10:01:51.141Z,23.35
2019-02-17T10:02:51.102Z,23.32
2019-02-17T10:03:51.055Z,23.38
2019-02-17T10:04:51.036Z,23.32
2019-02-17T10:05:50.969Z,23.31
2019-02-17T10:06:50.930Z,23.31
2019-02-17T10:07:51.375Z,23.26
2019-02-17T10:08:50.846Z,23.39
2019-02-17T10:09:50.793Z,23.34
2019-02-17T10:10:50.750Z,23.27
2019-02-17T10:11:50.705Z,23.35
2019-02-17T10:12:50.660Z,23.26
2019-02-17T10:13:50.619Z,23.29
2019-02-17T10:14:50.574Z,23.29
2019-02-17T10:15:50.529Z,23.29
2019-02-17T10:16:50.486Z,23.27
2019-02-17T10:17:50.436Z,23.26
2019-02-17T10:18:50.398Z,23.22
2019-02-17T10:19:50.551Z,23.29
2019-02-17T10:20:50.309Z,23.31
2019-02-17T10:21:50.260Z,23.31
2019-02-17T10:22:50.215Z,23.31
2019-02-17T10:23:50.172Z,23.27
2019-02-17T10:24:50.128Z,23.35
2019-02-17T10:25:50.083Z,23.35
2019-02-17T10:26:50.038Z,23.31
2019-02-17T10:27:49.995Z,23.31
2019-02-17T10:28:49.952Z,23.31
2019-02-17T10:29:49.926Z,23.27
2019-02-17T10:30:49.866Z,23.29
2019-02-17T10:31:49.819Z,23.27
2019-02-17T10:32:49.773Z,23.26
2019-02-17T10:33:49.732Z,23.32
2019-02-17T10:34:49.685Z,23.31
2019-02-17T10:35:49.726Z,23.27
2019-02-17T10:36:49.601Z,23.27
2019-02-17T10:37:49.563Z,23.32
2019-02-17T10:38:49.915Z,23.24
2019-02-17T10:39:49.463Z,23.40
2019-02-17T10:40:49.493Z,23.29
2019-02-17T10:41:49.762Z,23.34
2019-02-17T10:42:49.403Z,23.39
2019-02-17T10:43:49.328Z,23.34
2019-02-17T10:44:49.246Z,23.26
2019-02-17T10:45:49.200Z,23.34
2019-02-17T10:46:49.155Z,23.34
2019-02-17T10:47:49.110Z,23.29
2019-02-17T10:48:49.065Z,23.31
2019-02-17T10:49:49.021Z,23.32
2019-02-17T10:50:48.977Z,23.26
2019-02-17T10:51:48.934Z,23.32
2019-02-17T10:52:48.890Z,23.32
2019-02-17T10:53:48.846Z,23.31
2019-02-17T10:54:48.802Z,23.34
2019-02-17T10:55:48.758Z,23.32
2019-02-17T10:56:48.712Z,23.27
2019-02-17T10:57:48.673Z,23.32
2019-02-17T10:58:48.625Z,23.35
2019-02-17T10:59:48.579Z,23.38
2019-02-17T11:00:48.553Z,23.32
2019-02-17T11:01:48.492Z,23.29
2019-02-17T11:02:48.457Z,23.31
2019-02-17T11:03:48.404Z,23.38
2019-02-17T11:04:48.359Z,23.32
2019-02-17T11:05:48.314Z,23.35
2019-02-17T11:06:48.318Z,23.35
2019-02-17T11:07:48.226Z,23.35
2019-02-17T11:08:48.182Z,23.35
2019-02-17T11:09:48.133Z,23.35
2019-02-17T11:10:48.103Z,23.34
2019-02-17T11:11:48.061Z,23.35
2019-02-17T11:12:48.116Z,23.40
2019-02-17T11:13:47.964Z,23.38
2019-02-17T11:14:47.919Z,23.35
2019-02-17T11:15:47.875Z,23.34
2019-02-17T11:16:47.853Z,23.39
2019-02-17T11:17:48.031Z,23.39
2019-02-17T11:18:48.017Z,23.47
2019-02-17T11:19:48.070Z,23.40
2019-02-17T11:20:47.656Z,23.47
2019-02-17T11:21:47.617Z,23.43
2019-02-17T11:22:47.565Z,23.49
2019-02-17T11:23:47.521Z,23.40
2019-02-17T11:24:47.480Z,23.45
2019-02-17T11:25:47.430Z,23.45
2019-02-17T11:26:47.480Z,23.42
2019-02-17T11:27:47.352Z,23.45
2019-02-17T11:28:47.301Z,23.42
2019-02-17T11:29:47.253Z,23.50
2019-02-17T11:30:47.211Z,23.45
2019-02-17T11:31:47.165Z,23.47
2019-02-17T11:32:57.139Z,23.50
2019-02-17T11:33:47.079Z,23.47
2019-02-17T11:34:47.034Z,23.55
2019-02-17T11:35:47.053Z,23.45
2019-02-17T11:36:46.947Z,23.50
2019-02-17T11:37:47.065Z,23.57
2019-02-17T11:38:47.046Z,23.46
2019-02-17T11:39:46.813Z,23.47
2019-02-17T11:40:46.771Z,23.50
2019-02-17T11:41:46.725Z,23.49
2019-02-17T11:42:46.682Z,23.53
2019-02-17T11:43:46.636Z,23.45
2019-02-17T11:44:46.596Z,23.53
2019-02-17T11:45:46.547Z,23.53
2019-02-17T11:46:46.506Z,23.57
2019-02-17T11:47:46.459Z,23.53
2019-02-17T11:48:46.425Z,23.55
2019-02-17T11:49:46.370Z,23.55
2019-02-17T11:50:46.329Z,23.53
2019-02-17T11:51:46.289Z,23.57
2019-02-17T11:52:46.241Z,23.58
2019-02-17T11:53:46.199Z,23.52
2019-02-17T11:54:47.634Z,23.52
2019-02-17T11:55:46.108Z,23.47
2019-02-17T11:56:46.064Z,23.58
2019-02-17T11:57:46.026Z,23.49
2019-02-17T11:58:45.976Z,23.65
2019-02-17T11:59:45.946Z,23.58
2019-02-17T12:00:45.888Z,23.57
2019-02-17T12:01:45.843Z,23.58
2019-02-17T12:02:45.814Z,23.58
2019-02-17T12:03:45.758Z,23.64
2019-02-17T12:04:45.715Z,23.67
2019-02-17T12:05:45.667Z,23.58
2019-02-17T12:06:45.627Z,23.68
2019-02-17T12:07:45.587Z,23.61
2019-02-17T12:08:45.546Z,23.70
2019-02-17T12:09:45.569Z,23.60
2019-02-17T12:10:45.447Z,23.71
2019-02-17T12:11:45.403Z,23.70
2019-02-17T12:12:45.360Z,23.68
2019-02-17T12:13:45.315Z,23.67
2019-02-17T12:14:45.275Z,23.64
2019-02-17T12:15:45.227Z,23.64
2019-02-17T12:16:45.184Z,23.70
2019-02-17T12:17:45.138Z,23.68
2019-02-17T12:18:45.096Z,23.62
2019-02-17T12:19:45.056Z,23.67
2019-02-17T12:20:45.011Z,23.65
2019-02-17T12:21:44.962Z,23.70
2019-02-17T12:22:44.924Z,23.70
2019-02-17T12:23:44.880Z,23.70
2019-02-17T12:24:44.835Z,23.70
2019-02-17T12:25:44.789Z,23.79
2019-02-17T12:26:44.745Z,23.71
2019-02-17T12:27:44.698Z,23.71
2019-02-17T12:28:44.658Z,23.70
2019-02-17T12:29:44.611Z,23.77
2019-02-17T12:30:44.576Z,23.67
2019-02-17T12:31:44.522Z,23.80
2019-02-17T12:32:44.484Z,23.68
2019-02-17T12:33:44.437Z,23.80
2019-02-17T12:34:44.395Z,23.79
2019-02-17T12:35:44.347Z,23.79
2019-02-17T12:36:44.309Z,23.85
2019-02-17T12:37:44.260Z,23.79
2019-02-17T12:38:44.224Z,23.79
2019-02-17T12:39:44.173Z,23.79
2019-02-17T12:40:44.134Z,23.76
2019-02-17T12:41:44.082Z,23.85
2019-02-17T12:42:44.041Z,23.80
2019-02-17T12:43:43.994Z,23.85
2019-02-17T12:44:43.954Z,23.83
2019-02-17T12:45:43.906Z,23.86
2019-02-17T12:46:43.866Z,23.83
2019-02-17T12:47:43.821Z,23.86
2019-02-17T12:48:43.778Z,23.82
2019-02-17T12:49:44.823Z,23.83
2019-02-17T12:50:43.813Z,23.86
2019-02-17T12:51:43.643Z,23.85